Time;durP1;ratioP1;P1;durP2;ratioP2;P2;SDS_P1;SDS_P2;PMS_P1;PMS_P2;Temp;Humidity;BMP_temperature;BMP_pressure;BME280_temperature;BME280_humidity;BME280_pressure;Samples;Min_cycle;Max_cycle;Signal;HPM_P1;HPM_P2
2022/06/16 00:00:44;;;;;;;7.50;3.33;;;;;;;17.48;58.76;101743.03;5041517;28;20026;-89
2022/06/16 00:03:09;;;;;;;7.43;3.53;;;;;;;17.47;59.31;101741.41;5043911;28;20033;-90
2022/06/16 00:05:37;;;;;;;7.55;3.30;;;;;;;17.41;58.37;101742.56;5043648;28;20029;-89
2022/06/16 00:08:05;;;;;;;6.30;3.40;;;;;;;17.40;58.48;101744.44;5041527;28;20033;-90
2022/06/16 00:10:31;;;;;;;8.18;3.40;;;;;;;17.29;58.99;101734.78;5041501;28;20093;-90
2022/06/16 00:12:56;;;;;;;5.75;3.70;;;;;;;17.24;59.27;101732.09;5037762;28;20032;-89
2022/06/16 00:15:24;;;;;;;7.37;3.67;;;;;;;17.24;59.24;101732.94;5032358;28;20037;-90
2022/06/16 00:17:57;;;;;;;5.32;3.33;;;;;;;17.19;58.96;101740.25;5032782;28;20038;-90
2022/06/16 00:20:23;;;;;;;8.45;3.42;;;;;;;17.06;59.15;101733.59;5057610;22;20044;-90
2022/06/16 00:22:49;;;;;;;4.10;3.13;;;;;;;17.14;59.07;101743.00;5051274;28;20400;-91
2022/06/16 00:25:15;;;;;;;9.32;3.60;;;;;;;17.06;59.20;101739.78;5051582;28;20021;-90
2022/06/16 00:27:41;;;;;;;6.45;3.55;;;;;;;17.02;59.15;101746.06;5033524;28;20098;-91
2022/06/16 00:30:09;;;;;;;6.40;3.53;;;;;;;16.92;59.44;101744.97;5051213;28;20095;-91
2022/06/16 00:32:36;;;;;;;6.47;3.40;;;;;;;16.84;59.59;101744.75;5051367;28;20455;-90
2022/06/16 00:35:02;;;;;;;9.47;3.90;;;;;;;16.78;59.59;101746.66;5054244;28;20271;-90
2022/06/16 00:37:27;;;;;;;7.65;3.63;;;;;;;16.68;60.08;101738.59;5054676;28;20118;-91
2022/06/16 00:39:52;;;;;;;6.27;3.57;;;;;;;16.67;59.91;101748.59;5054887;28;20079;-90
2022/06/16 00:42:24;;;;;;;7.73;3.80;;;;;;;16.52;60.77;101727.03;5054190;28;20473;-90
2022/06/16 00:44:52;;;;;;;6.68;3.50;;;;;;;16.49;60.50;101750.84;5054726;28;20024;-91
2022/06/16 00:47:24;;;;;;;5.95;3.78;;;;;;;16.38;61.04;101749.25;5054515;28;20443;-90
2022/06/16 00:49:52;;;;;;;6.97;3.67;;;;;;;16.34;60.71;101742.75;5054352;28;20055;-90
2022/06/16 00:52:29;;;;;;;8.60;4.22;;;;;;;16.23;61.26;101743.88;5054343;28;20072;-90
2022/06/16 00:55:02;;;;;;;4.33;3.53;;;;;;;16.26;61.45;101756.84;5054717;28;20048;-90
2022/06/16 00:57:34;;;;;;;7.43;3.60;;;;;;;16.16;61.68;101757.66;5054244;28;20303;-91
2022/06/16 01:00:03;;;;;;;7.80;3.70;;;;;;;16.08;61.47;101750.91;5036683;28;20493;-90
2022/06/16 01:02:34;;;;;;;7.80;3.95;;;;;;;16.09;61.06;101752.53;5054236;28;20035;-91
2022/06/16 01:04:59;;;;;;;7.13;3.92;;;;;;;16.02;62.11;101768.25;5054701;28;20025;-90
2022/06/16 01:07:36;;;;;;;7.50;3.70;;;;;;;15.96;61.70;101763.91;5054514;28;20029;-91
2022/06/16 01:10:03;;;;;;;6.05;3.95;;;;;;;15.88;62.22;101755.28;5054587;28;20029;-91
2022/06/16 01:15:40;;;;;;;7.05;3.72;;;;;;;15.93;62.23;101767.16;5054400;28;20040;-90
2022/06/16 01:18:17;;;;;;;5.95;4.32;;;;;;;15.82;62.99;101766.31;5054426;28;20469;-91
2022/06/16 01:21:10;;;;;;;6.20;3.65;;;;;;;15.83;62.70;101771.47;5053873;28;20033;-90
2022/06/16 01:23:51;;;;;;;12.25;4.10;;;;;;;15.77;62.42;101777.94;5054582;28;20396;-90
2022/06/16 01:26:51;;;;;;;6.30;4.10;;;;;;;15.73;62.54;101774.16;5054496;28;20045;-90
2022/06/16 01:29:37;;;;;;;8.00;4.10;;;;;;;15.72;62.75;101777.91;5064597;28;20295;-90
2022/06/16 01:32:13;;;;;;;5.72;3.55;;;;;;;15.79;63.20;101789.28;5066438;28;20032;-89
2022/06/16 01:35:07;;;;;;;8.32;4.70;;;;;;;15.75;62.25;101796.31;5064672;28;20112;-91
2022/06/16 01:38:09;;;;;;;8.18;4.13;;;;;;;15.70;62.38;101793.63;5062424;28;20590;-90
2022/06/16 01:40:45;;;;;;;9.30;4.07;;;;;;;15.68;62.72;101795.78;5063202;28;20052;-90
2022/06/16 01:43:19;;;;;;;6.43;4.68;;;;;;;15.66;62.79;101797.94;5064165;28;20025;-88
2022/06/16 01:45:58;;;;;;;6.80;4.05;;;;;;;15.51;62.81;101788.72;5062861;28;20025;-89
2022/06/16 01:48:27;;;;;;;6.95;4.00;;;;;;;15.43;63.27;101790.03;5053839;28;20033;-90
2022/06/16 01:51:05;;;;;;;9.45;4.43;;;;;;;15.37;63.37;101790.31;5053082;28;20028;-90
2022/06/16 01:53:53;;;;;;;5.10;4.00;;;;;;;15.21;63.55;101784.06;5053469;28;20036;-90
2022/06/16 01:56:42;;;;;;;5.90;4.17;;;;;;;15.08;64.11;101788.88;5053420;28;20643;-89
2022/06/16 01:59:22;;;;;;;7.85;4.15;;;;;;;15.00;64.25;101789.41;5052739;28;20037;-90
2022/06/16 02:01:52;;;;;;;7.95;4.10;;;;;;;14.81;65.48;101780.94;5052765;28;20115;-89
2022/06/16 02:04:25;;;;;;;7.90;4.20;;;;;;;14.77;65.55;101794.16;5052770;28;20045;-90
2022/06/16 02:06:54;;;;;;;10.63;4.50;;;;;;;14.61;66.13;101789.72;5056129;28;20025;-90
2022/06/16 02:09:27;;;;;;;7.40;4.30;;;;;;;14.54;66.10;101787.25;5059439;28;20017;-90
2022/06/16 02:11:58;;;;;;;7.55;4.68;;;;;;;14.41;66.62;101788.53;5054384;28;20016;-90
2022/06/16 02:14:40;;;;;;;8.13;4.93;;;;;;;14.41;66.89;101798.50;5053029;28;20036;-90
2022/06/16 02:17:05;;;;;;;7.28;4.80;;;;;;;14.35;66.96;101787.69;5052125;28;20021;-89
2022/06/16 02:19:31;;;;;;;10.20;4.90;;;;;;;14.32;67.92;101788.19;5051818;28;20553;-90
2022/06/16 02:21:56;;;;;;;9.30;4.87;;;;;;;14.20;67.73;101772.22;5052717;28;20021;-89
2022/06/16 02:24:27;;;;;;;7.00;5.03;;;;;;;14.31;67.76;101775.00;5052444;28;20763;-90
2022/06/16 02:26:56;;;;;;;6.35;4.57;;;;;;;14.24;68.04;101776.03;5052575;28;20036;-90
2022/06/16 02:29:43;;;;;;;8.65;4.53;;;;;;;14.23;67.85;101787.06;5052201;28;20047;-90
2022/06/16 02:32:08;;;;;;;7.28;4.85;;;;;;;14.09;68.86;101794.78;5056970;28;20158;-89
2022/06/16 02:34:55;;;;;;;12.30;5.07;;;;;;;13.98;68.02;101801.97;5052165;28;20079;-91
2022/06/16 02:37:26;;;;;;;8.02;5.13;;;;;;;13.94;69.34;101814.31;5052005;28;20155;-91
2022/06/16 02:40:14;;;;;;;7.43;4.93;;;;;;;13.84;68.68;101825.03;5050587;28;20040;-91
2022/06/16 02:42:52;;;;;;;6.18;4.90;;;;;;;13.77;70.13;101823.34;5051907;28;20036;-91
2022/06/16 02:45:20;;;;;;;12.75;4.65;;;;;;;13.74;69.63;101831.94;5051887;28;20021;-91
2022/06/16 02:48:09;;;;;;;10.10;4.80;;;;;;;13.71;69.48;101835.13;5034081;28;20033;-91
2022/06/16 02:51:02;;;;;;;8.38;4.70;;;;;;;13.67;70.22;101831.34;5051564;28;20029;-91
2022/06/16 02:54:20;;;;;;;6.75;5.00;;;;;;;13.58;70.69;101849.00;5051788;28;20052;-90
2022/06/16 02:57:01;;;;;;;6.30;4.63;;;;;;;13.52;70.81;101841.91;4951083;28;20039;-90
2022/06/16 02:59:32;;;;;;;11.27;4.57;;;;;;;13.41;71.34;101836.44;4951163;29;20290;-89
2022/06/16 03:02:09;;;;;;;10.43;4.90;;;;;;;13.38;71.07;101834.22;5016995;28;20552;-91
2022/06/16 03:04:37;;;;;;;7.60;4.85;;;;;;;13.34;71.72;101827.69;5051454;28;20066;-91
2022/06/16 03:07:03;;;;;;;8.75;4.78;;;;;;;13.37;72.20;101837.16;5051729;28;20029;-89
2022/06/16 03:09:29;;;;;;;6.72;4.63;;;;;;;13.29;72.66;101839.22;5051330;28;20400;-90
2022/06/16 03:11:54;;;;;;;9.93;4.80;;;;;;;13.22;72.98;101837.78;5033014;28;20025;-90
2022/06/16 03:14:19;;;;;;;9.83;4.77;;;;;;;13.20;72.96;101837.22;5051608;28;20029;-91
2022/06/16 03:16:45;;;;;;;6.67;4.27;;;;;;;13.16;73.16;101832.34;5051467;28;20776;-91
2022/06/16 03:19:11;;;;;;;12.10;4.75;;;;;;;13.04;73.36;101828.97;5050891;28;20025;-89
2022/06/16 03:21:36;;;;;;;13.70;4.53;;;;;;;13.04;73.22;101831.66;5050923;28;20096;-91
2022/06/16 03:24:01;;;;;;;8.33;4.70;;;;;;;13.07;73.70;101835.72;5051293;28;20029;-91
2022/06/16 03:26:27;;;;;;;7.27;5.07;;;;;;;13.08;73.72;101840.88;5051459;28;20029;-91
2022/06/16 03:28:52;;;;;;;9.53;5.10;;;;;;;13.07;73.72;101851.84;5051321;28;20040;-91
2022/06/16 03:31:18;;;;;;;6.87;5.20;;;;;;;12.95;73.96;101842.03;5032830;28;20283;-90
2022/06/16 03:33:43;;;;;;;6.63;4.77;;;;;;;12.95;74.38;101835.84;5051858;28;20033;-91
2022/06/16 03:36:11;;;;;;;7.88;5.00;;;;;;;12.94;73.83;101832.34;5040495;28;20017;-91
2022/06/16 03:38:41;;;;;;;7.43;4.47;;;;;;;12.95;74.10;101831.28;5050976;28;20403;-91
2022/06/16 03:41:07;;;;;;;8.30;4.80;;;;;;;12.91;74.01;101838.22;5050608;28;20028;-91
2022/06/16 03:43:32;;;;;;;11.30;5.37;;;;;;;12.86;74.12;101843.53;5051175;28;20029;-91
2022/06/16 03:45:57;;;;;;;11.00;5.30;;;;;;;12.86;74.19;101847.03;5053079;28;20025;-91
2022/06/16 03:48:22;;;;;;;8.83;5.47;;;;;;;12.85;74.38;101858.06;5065687;28;20029;-90
2022/06/16 03:50:48;;;;;;;11.17;5.60;;;;;;;12.85;74.53;101866.91;5061365;28;20052;-91
2022/06/16 03:53:13;;;;;;;9.32;5.97;;;;;;;12.81;74.69;101871.16;5053503;28;20025;-91
2022/06/16 03:55:39;;;;;;;8.47;5.17;;;;;;;12.83;74.46;101865.56;5052845;28;20583;-90
2022/06/16 03:58:05;;;;;;;8.20;5.72;;;;;;;12.77;74.79;101866.53;5051415;28;20021;-90
2022/06/16 04:00:50;;;;;;;10.13;6.03;;;;;;;12.84;73.58;101886.00;5050809;28;20029;-91
2022/06/16 04:06:00;;;;;;;7.72;5.25;;;;;;;12.81;74.74;101884.59;5050930;28;20035;-90
2022/06/16 04:08:26;;;;;;;7.77;5.50;;;;;;;12.79;75.03;101894.00;5050910;28;20029;-91
2022/06/16 04:10:51;;;;;;;13.15;5.97;;;;;;;12.76;74.59;101889.94;5054426;28;20056;-91
2022/06/16 04:13:16;;;;;;;9.03;5.40;;;;;;;12.79;74.29;101897.47;5055337;28;20048;-91
2022/06/16 04:15:42;;;;;;;9.00;5.40;;;;;;;12.79;74.42;101897.47;5057945;28;20032;-91
2022/06/16 04:18:07;;;;;;;10.00;5.47;;;;;;;12.79;74.94;101897.47;5063956;28;20032;-89
2022/06/16 04:20:34;;;;;;;14.57;5.75;;;;;;;12.84;74.82;101900.25;5054747;28;20028;-90
2022/06/16 04:22:59;;;;;;;9.07;5.20;;;;;;;12.87;74.34;101894.38;5054789;28;20059;-91
2022/06/16 04:25:32;;;;;;;8.63;5.53;;;;;;;13.08;73.65;101888.47;5055705;28;20049;-89
2022/06/16 04:28:03;;;;;;;10.05;5.55;;;;;;;13.25;72.81;101894.63;5054540;28;20443;-91
2022/06/16 04:30:28;;;;;;;10.15;5.47;;;;;;;13.20;73.01;101899.13;5053740;28;20476;-91
2022/06/16 04:32:54;;;;;;;10.33;5.20;;;;;;;13.16;72.92;101891.53;5054509;28;20083;-91
2022/06/16 04:35:19;;;;;;;9.23;5.47;;;;;;;13.20;73.22;101912.56;5054337;28;20025;-90
2022/06/16 04:37:45;;;;;;;10.73;5.80;;;;;;;13.21;73.35;101908.81;5054515;28;20028;-92
2022/06/16 04:40:11;;;;;;;9.45;5.57;;;;;;;13.16;72.77;101910.38;5054041;28;20083;-90
2022/06/16 04:42:36;;;;;;;9.50;5.77;;;;;;;13.19;72.74;101906.41;5054240;28;20032;-90
2022/06/16 04:45:03;;;;;;;8.90;5.22;;;;;;;13.46;72.00;101909.19;5054742;28;20060;-89
2022/06/16 04:47:28;;;;;;;11.10;5.82;;;;;;;13.73;70.78;101919.19;5055201;28;20040;-93
2022/06/16 04:49:55;;;;;;;12.37;5.83;;;;;;;14.69;68.23;101924.94;5037152;28;20032;-91
2022/06/16 04:52:21;;;;;;;9.85;5.50;;;;;;;15.96;64.33;101936.91;5059670;28;20025;-92
2022/06/16 04:54:48;;;;;;;6.57;4.90;;;;;;;17.08;59.24;101934.44;5054477;28;20036;-92
2022/06/16 04:57:14;;;;;;;9.00;4.90;;;;;;;17.94;56.52;101934.34;5054007;28;20037;-92
2022/06/16 04:59:39;;;;;;;7.73;5.00;;;;;;;18.88;54.40;101942.59;5054088;28;20028;-92
2022/06/16 05:02:05;;;;;;;9.07;4.90;;;;;;;19.60;51.27;101941.78;5053851;28;20029;-91
2022/06/16 05:04:30;;;;;;;6.97;4.40;;;;;;;20.24;49.68;101944.13;5054336;28;20033;-92
2022/06/16 05:06:56;;;;;;;8.07;4.60;;;;;;;20.39;47.35;101945.81;5054089;28;20542;-92
2022/06/16 05:09:23;;;;;;;6.83;4.37;;;;;;;20.37;46.82;101950.75;5054351;28;20311;-92
2022/06/16 05:11:48;;;;;;;9.10;4.30;;;;;;;20.67;46.83;101958.69;5053732;28;20392;-91
2022/06/16 05:14:13;;;;;;;6.68;4.03;;;;;;;21.12;46.01;101955.44;5036100;28;20021;-92
2022/06/16 05:16:39;;;;;;;8.53;4.20;;;;;;;21.40;44.66;101966.31;5053981;28;20032;-91
2022/06/16 05:19:05;;;;;;;6.07;4.30;;;;;;;21.52;43.59;101972.09;5053824;28;20024;-93
2022/06/16 05:21:30;;;;;;;4.93;4.03;;;;;;;21.93;42.91;101979.38;5052460;28;20362;-91
2022/06/16 05:23:55;;;;;;;7.40;4.00;;;;;;;21.97;42.78;101970.59;5053853;28;20731;-91
2022/06/16 05:26:21;;;;;;;6.83;3.77;;;;;;;22.33;41.77;101983.41;5053449;28;20029;-91
2022/06/16 05:28:46;;;;;;;9.20;3.93;;;;;;;22.53;40.44;101969.28;5053578;28;20071;-91
2022/06/16 05:31:14;;;;;;;5.87;3.83;;;;;;;22.85;40.51;101982.94;5053736;28;20025;-92
2022/06/16 05:33:39;;;;;;;13.40;4.13;;;;;;;22.93;40.44;101978.66;5054023;28;20287;-93
2022/06/16 05:36:10;;;;;;;5.70;3.70;;;;;;;23.32;39.84;101993.47;5053541;28;20025;-91
2022/06/16 05:38:36;;;;;;;4.03;3.30;;;;;;;23.79;38.19;101994.84;5052915;28;20044;-91
2022/06/16 05:41:10;;;;;;;8.57;3.40;;;;;;;24.23;38.46;101992.97;5052890;28;20406;-92
2022/06/16 05:43:36;;;;;;;9.45;3.53;;;;;;;24.11;37.19;101995.53;5053264;28;20094;-92
2022/06/16 05:46:01;;;;;;;7.57;3.50;;;;;;;23.55;37.55;101998.84;5053457;28;20423;-91
2022/06/16 05:48:27;;;;;;;5.00;3.53;;;;;;;23.36;38.87;101997.19;5053096;28;20776;-91
2022/06/16 05:50:53;;;;;;;6.27;3.73;;;;;;;23.26;38.28;102013.84;5052602;28;20032;-92
2022/06/16 05:53:19;;;;;;;5.40;3.97;;;;;;;23.14;38.11;102011.69;5052737;28;20036;-91
2022/06/16 05:55:44;;;;;;;7.75;3.67;;;;;;;22.77;38.01;102006.38;5053084;28;20029;-90
2022/06/16 05:58:13;;;;;;;6.13;3.50;;;;;;;22.51;39.17;101998.03;5052729;28;20063;-92
2022/06/16 06:00:38;;;;;;;5.30;3.53;;;;;;;22.14;39.74;102008.16;5052723;28;20060;-91
2022/06/16 06:03:04;;;;;;;7.33;3.10;;;;;;;21.88;40.00;102014.16;5053223;28;20464;-91
2022/06/16 06:05:29;;;;;;;5.57;3.50;;;;;;;21.57;40.74;102012.06;5052851;28;20021;-91
2022/06/16 06:16:26;;;;;;;6.75;3.17;;;;;;;21.14;41.27;102007.72;5053063;28;20125;-92
2022/06/16 06:19:23;;;;;;;5.65;2.80;;;;;;;21.01;40.41;102009.31;5052882;28;20052;-93
2022/06/16 06:22:01;;;;;;;4.88;2.92;;;;;;;20.79;41.92;102010.00;5052092;28;20040;-92
2022/06/16 06:24:47;;;;;;;4.88;2.90;;;;;;;20.52;41.02;102015.03;5053890;28;20108;-93
2022/06/16 06:27:28;;;;;;;4.67;2.53;;;;;;;20.13;41.63;102027.84;5054476;28;20033;-91
2022/06/16 06:29:54;;;;;;;5.77;2.60;;;;;;;19.93;43.01;102023.50;5054647;28;20278;-91
2022/06/16 06:32:22;;;;;;;5.70;2.70;;;;;;;19.81;42.75;102021.16;5051378;28;20032;-94
2022/06/16 06:34:47;;;;;;;5.03;2.53;;;;;;;19.70;40.62;102024.28;5052285;28;20540;-92
2022/06/16 06:37:15;;;;;;;4.50;2.30;;;;;;;19.54;42.67;102024.50;5052409;28;20112;-91
2022/06/16 06:39:41;;;;;;;7.13;2.50;;;;;;;19.45;43.02;102015.34;5052488;28;20170;-91
2022/06/16 06:42:07;;;;;;;6.35;2.60;;;;;;;19.27;42.26;102025.84;5052038;28;20433;-92
2022/06/16 06:44:34;;;;;;;5.93;2.60;;;;;;;19.21;43.18;102030.53;5034475;28;20524;-91
2022/06/16 06:47:07;;;;;;;4.13;2.30;;;;;;;19.12;43.97;102028.72;5052287;28;20017;-92
2022/06/16 06:49:33;;;;;;;6.68;2.65;;;;;;;19.02;44.10;102027.75;5052482;28;20029;-92
2022/06/16 06:51:58;;;;;;;5.30;2.55;;;;;;;18.94;42.33;102028.31;5051935;28;20032;-91
2022/06/16 06:54:24;;;;;;;5.57;2.90;;;;;;;18.98;43.52;102025.91;5051890;28;20049;-93
2022/06/16 06:56:50;;;;;;;4.40;2.60;;;;;;;19.00;43.93;102037.25;5051753;28;20025;-92
2022/06/16 06:59:33;;;;;;;9.93;2.92;;;;;;;18.91;43.00;102042.47;5052356;28;20823;-92
2022/06/16 07:02:01;;;;;;;7.20;2.42;;;;;;;19.02;44.24;102046.75;5051663;28;20059;-92
2022/06/16 07:04:27;;;;;;;6.65;2.38;;;;;;;18.92;42.88;102047.63;5052170;28;20488;-91
2022/06/16 07:06:53;;;;;;;5.07;2.70;;;;;;;18.83;43.54;102040.38;5052255;28;20029;-92
2022/06/16 07:09:19;;;;;;;5.07;2.58;;;;;;;18.97;45.24;102044.09;5052998;28;20626;-93
2022/06/16 07:11:47;;;;;;;4.30;2.50;;;;;;;19.15;44.03;102047.19;5051919;28;20053;-92
2022/06/16 07:14:13;;;;;;;7.03;2.42;;;;;;;19.35;44.28;102049.69;5055968;28;20060;-92
2022/06/16 07:16:38;;;;;;;4.60;2.30;;;;;;;19.38;42.51;102064.59;5051866;28;20369;-93
2022/06/16 07:19:07;;;;;;;6.30;2.40;;;;;;;19.45;43.44;102065.09;5051404;28;20063;-91
2022/06/16 07:21:32;;;;;;;7.80;2.47;;;;;;;19.63;44.02;102073.59;5050803;28;20032;-93
2022/06/16 07:24:01;;;;;;;3.58;1.58;;;;;;;19.49;42.54;102074.28;5051725;28;20070;-92
2022/06/16 07:26:26;;;;;;;6.18;2.05;;;;;;;19.37;42.19;102071.13;5051619;28;20083;-93
2022/06/16 07:28:52;;;;;;;4.33;1.80;;;;;;;19.42;42.88;102076.53;5051347;28;20032;-92
2022/06/16 07:31:35;;;;;;;5.82;2.00;;;;;;;19.48;42.63;102078.09;5050858;28;20021;-92
2022/06/16 07:34:01;;;;;;;5.07;2.10;;;;;;;19.55;42.76;102085.09;5051135;28;20048;-93
2022/06/16 07:36:35;;;;;;;3.37;2.10;;;;;;;19.68;43.23;102081.69;5051557;28;20317;-93
2022/06/16 07:39:02;;;;;;;6.90;2.20;;;;;;;19.91;43.13;102095.59;5033283;28;20087;-92
2022/06/16 07:41:34;;;;;;;5.97;2.23;;;;;;;19.92;41.77;102108.09;5052170;28;20029;-92
2022/06/16 07:44:04;;;;;;;4.13;2.20;;;;;;;20.03;41.58;102116.94;5051171;28;20336;-92
2022/06/16 07:46:29;;;;;;;3.30;2.00;;;;;;;19.87;42.61;102111.69;5051924;28;20032;-92
2022/06/16 07:48:54;;;;;;;7.05;1.83;;;;;;;20.00;42.33;102123.78;5052026;28;20040;-92
2022/06/16 07:51:20;;;;;;;8.17;1.80;;;;;;;20.03;41.17;102114.22;5052778;28;20024;-92
2022/06/16 07:53:46;;;;;;;3.43;1.67;;;;;;;20.04;40.35;102115.84;5055502;28;20028;-92
2022/06/16 07:56:11;;;;;;;6.82;1.60;;;;;;;20.28;41.69;102118.50;5053686;28;20029;-93
2022/06/16 07:58:39;;;;;;;3.73;1.50;;;;;;;20.30;40.86;102107.34;5074488;28;20049;-92
2022/06/16 08:01:07;;;;;;;4.70;1.85;;;;;;;20.30;40.32;102121.75;5066669;28;20013;-93
2022/06/16 08:03:32;;;;;;;4.70;1.60;;;;;;;20.42;39.77;102126.78;5057281;28;20066;-92
2022/06/16 08:06:01;;;;;;;6.38;1.38;;;;;;;20.54;39.33;102123.63;5054443;28;20082;-93
2022/06/16 08:08:26;;;;;;;3.80;1.60;;;;;;;20.76;39.75;102128.50;5053596;28;20032;-92
2022/06/16 08:10:53;;;;;;;4.60;1.73;;;;;;;20.65;39.59;102130.53;5050922;28;20104;-92
2022/06/16 08:13:20;;;;;;;2.47;1.70;;;;;;;20.63;39.35;102127.31;5051446;28;20113;-92
2022/06/16 08:15:46;;;;;;;4.10;1.60;;;;;;;20.78;39.94;102133.66;5051556;28;20021;-92
2022/06/16 08:18:16;;;;;;;3.83;1.57;;;;;;;20.97;38.34;102145.34;5050627;28;20377;-92
2022/06/16 08:20:42;;;;;;;3.28;1.45;;;;;;;20.99;39.97;102124.06;5050632;28;20048;-93
2022/06/16 08:23:07;;;;;;;7.17;1.60;;;;;;;21.30;40.02;102139.88;5051125;28;20021;-93
2022/06/16 08:25:42;;;;;;;4.47;1.83;;;;;;;21.28;38.84;102135.81;5051267;28;20034;-93
2022/06/16 08:28:09;;;;;;;4.75;1.88;;;;;;;21.58;39.72;102133.69;5050880;28;20124;-92
2022/06/16 08:30:34;;;;;;;4.32;1.70;;;;;;;21.73;38.95;102136.13;5050848;28;20452;-93
2022/06/16 08:33:02;;;;;;;5.67;1.90;;;;;;;21.81;37.16;102131.09;5053413;28;20036;-93
2022/06/16 08:35:27;;;;;;;3.47;2.10;;;;;;;21.92;37.78;102138.75;5035175;28;20166;-93
2022/06/16 08:37:59;;;;;;;6.10;2.10;;;;;;;21.91;37.75;102136.34;5051584;28;20124;-92
2022/06/16 08:40:25;;;;;;;3.75;1.80;;;;;;;21.83;38.14;102129.69;5050870;28;20186;-93
2022/06/16 08:43:23;;;;;;;4.80;2.08;;;;;;;21.88;39.19;102126.84;5051697;28;20502;-92
2022/06/16 08:45:56;;;;;;;3.80;1.90;;;;;;;22.11;38.62;102121.47;5039155;28;20025;-92
2022/06/16 08:48:58;;;;;;;5.00;2.17;;;;;;;22.07;38.29;102112.28;5051139;28;20025;-92
2022/06/16 08:51:39;;;;;;;4.57;2.20;;;;;;;22.30;37.97;102123.25;5050117;28;20033;-93
2022/06/16 08:54:10;;;;;;;2.97;1.90;;;;;;;22.57;38.68;102127.84;5032974;28;20029;-93
2022/06/16 08:57:17;;;;;;;3.78;2.25;;;;;;;22.53;37.56;102138.59;5055621;28;20475;-93
2022/06/16 09:00:05;;;;;;;4.55;2.15;;;;;;;22.14;37.95;102148.16;5054639;28;20468;-93
2022/06/16 09:02:38;;;;;;;5.95;2.25;;;;;;;22.11;38.48;102158.88;5057652;28;20100;-93
2022/06/16 09:05:32;;;;;;;6.78;2.47;;;;;;;22.16;37.49;102154.09;5055045;28;20024;-94
2022/06/16 09:08:25;;;;;;;3.33;2.40;;;;;;;22.35;37.99;102164.09;5054834;28;20464;-91
2022/06/16 09:11:03;;;;;;;6.93;2.43;;;;;;;22.29;36.88;102166.13;5054975;28;20033;-95
2022/06/16 09:13:56;;;;;;;6.03;2.23;;;;;;;22.13;38.92;102164.84;5054480;28;20402;-93
2022/06/16 09:16:46;;;;;;;3.45;2.38;;;;;;;22.33;37.78;102169.88;5054268;28;20024;-92
2022/06/16 09:19:25;;;;;;;4.05;2.50;;;;;;;22.47;37.93;102160.88;5054124;28;20040;-92
2022/06/16 09:22:06;;;;;;;8.60;2.35;;;;;;;22.71;37.75;102168.00;5036855;28;20092;-91
2022/06/16 09:24:40;;;;;;;2.50;1.95;;;;;;;22.74;36.66;102179.09;5055485;28;20468;-92
2022/06/16 09:27:18;;;;;;;4.63;2.17;;;;;;;22.99;36.69;102168.72;5061849;28;20033;-91
2022/06/16 09:30:21;;;;;;;7.85;2.80;;;;;;;23.04;37.29;102175.97;5059882;28;20029;-92
2022/06/16 09:32:51;;;;;;;3.53;2.30;;;;;;;23.34;35.88;102174.44;5062192;28;20025;-92
2022/06/16 09:35:27;;;;;;;4.55;2.50;;;;;;;23.39;35.90;102163.34;5060754;28;20039;-92
2022/06/16 09:38:02;;;;;;;5.77;2.20;;;;;;;23.57;37.56;102168.91;5037789;28;20111;-93
2022/06/16 09:40:44;;;;;;;5.13;2.80;;;;;;;23.62;36.72;102171.50;5039384;28;20279;-92
2022/06/16 09:43:14;;;;;;;5.00;2.47;;;;;;;23.21;35.54;102169.81;5059806;28;20096;-94
2022/06/16 09:46:21;;;;;;;6.03;2.47;;;;;;;23.34;37.68;102168.13;5057322;28;20048;-94
2022/06/16 09:49:00;;;;;;;6.20;2.65;;;;;;;23.47;36.99;102166.44;5056534;28;20029;-94
2022/06/16 09:51:36;;;;;;;3.88;2.50;;;;;;;23.72;37.15;102165.78;5055971;28;20660;-93
2022/06/16 09:54:29;;;;;;;3.65;2.65;;;;;;;23.78;36.35;102171.09;5056924;28;20499;-94
2022/06/16 09:57:21;;;;;;;5.63;2.30;;;;;;;23.97;36.18;102177.13;5056923;28;20021;-94
2022/06/16 09:59:56;;;;;;;5.00;2.75;;;;;;;23.84;36.26;102167.09;5055948;28;20032;-94
2022/06/16 10:02:26;;;;;;;6.13;2.67;;;;;;;24.04;35.14;102172.03;5054328;28;20148;-94
2022/06/16 10:04:54;;;;;;;6.00;2.40;;;;;;;24.11;35.50;102157.88;5054938;28;20578;-93
2022/06/16 10:07:32;;;;;;;5.97;2.70;;;;;;;24.17;35.83;102172.22;5054633;28;20267;-92
2022/06/16 10:10:20;;;;;;;4.63;2.45;;;;;;;24.47;35.97;102177.88;5056173;28;20480;-94
2022/06/16 10:13:14;;;;;;;6.65;2.50;;;;;;;24.68;36.66;102174.50;5055308;28;20189;-93
2022/06/16 10:15:52;;;;;;;6.00;2.55;;;;;;;24.87;34.46;102168.75;5054389;28;20079;-95
2022/06/16 10:18:21;;;;;;;6.45;2.50;;;;;;;24.93;35.67;102170.19;5054602;28;20025;-94
2022/06/16 10:20:46;;;;;;;7.72;2.90;;;;;;;24.93;34.23;102171.00;5054560;28;20559;-94
2022/06/16 10:23:35;;;;;;;5.20;2.50;;;;;;;24.90;35.49;102170.84;5054746;28;20072;-94
2022/06/16 10:26:06;;;;;;;4.38;2.85;;;;;;;25.08;35.01;102174.38;5055339;28;20028;-95
2022/06/16 10:28:38;;;;;;;6.32;2.70;;;;;;;24.97;33.96;102175.84;5185518;22;20140;-94
2022/06/16 10:31:07;;;;;;;5.85;2.90;;;;;;;25.28;34.46;102172.06;5054217;28;20025;-94
2022/06/16 10:33:36;;;;;;;5.32;2.30;;;;;;;25.36;34.75;102165.78;5054961;28;20032;-94
2022/06/16 10:36:16;;;;;;;5.00;2.40;;;;;;;25.47;34.36;102180.75;5054408;28;20538;-95
2022/06/16 10:39:04;;;;;;;5.20;2.53;;;;;;;25.12;34.22;102189.03;5054181;28;20495;-93
2022/06/16 10:41:33;;;;;;;5.77;2.70;;;;;;;24.91;34.61;102186.97;5056762;28;20271;-93
2022/06/16 10:44:02;;;;;;;5.47;2.42;;;;;;;24.95;33.76;102189.84;5059207;28;20093;-94
2022/06/16 10:46:33;;;;;;;4.30;2.50;;;;;;;25.20;33.73;102185.47;5054368;28;20048;-94
2022/06/16 10:49:04;;;;;;;6.25;3.35;;;;;;;25.23;32.93;102184.81;5037111;28;20090;-95
2022/06/16 10:51:32;;;;;;;4.13;2.38;;;;;;;25.51;34.05;102195.44;5053965;28;20024;-94
2022/06/16 10:54:26;;;;;;;4.75;2.85;;;;;;;25.57;34.24;102203.47;5055329;28;20021;-95
2022/06/16 10:57:13;;;;;;;5.07;2.67;;;;;;;25.81;34.07;102189.19;5054070;28;20384;-93
2022/06/16 10:59:48;;;;;;;3.45;2.17;;;;;;;26.32;34.61;102181.00;5054614;28;20238;-94
2022/06/16 11:02:17;;;;;;;7.00;2.60;;;;;;;26.60;33.85;102183.25;5053175;28;20154;-95
2022/06/16 11:04:43;;;;;;;5.50;2.43;;;;;;;26.68;31.42;102184.31;5054064;28;20021;-93
2022/06/16 11:07:19;;;;;;;6.37;2.80;;;;;;;26.59;32.94;102176.16;5060486;22;20774;-94
2022/06/16 11:09:45;;;;;;;6.05;2.70;;;;;;;26.26;32.53;102168.63;5054440;28;20025;-93
2022/06/16 11:12:32;;;;;;;4.03;2.60;;;;;;;26.53;33.92;102180.22;5056109;28;20040;-95
2022/06/16 11:15:03;;;;;;;6.63;2.45;;;;;;;26.45;32.21;102176.41;5052421;28;20090;-94
2022/06/16 11:17:36;;;;;;;7.78;2.40;;;;;;;26.53;32.71;102182.97;5051785;28;20076;-94
2022/06/16 11:20:13;;;;;;;5.82;2.78;;;;;;;26.40;33.27;102180.16;5052456;28;20050;-94
2022/06/16 11:22:42;;;;;;;8.30;2.88;;;;;;;26.24;33.28;102165.41;5054167;28;20041;-93
2022/06/16 11:25:21;;;;;;;5.18;2.53;;;;;;;26.08;32.68;102168.72;5068926;28;20017;-94
2022/06/16 11:28:01;;;;;;;9.20;2.90;;;;;;;26.19;33.17;102163.66;5055467;28;20108;-93
2022/06/16 11:30:43;;;;;;;4.20;2.40;;;;;;;26.40;32.63;102171.91;5034591;28;20036;-95
2022/06/16 11:36:49;;;;;;;4.10;2.05;;;;;;;26.70;33.09;102171.03;5053101;28;20052;-93
2022/06/16 11:39:30;;;;;;;5.85;2.58;;;;;;;26.89;33.19;102176.06;5001190;28;20040;-93
2022/06/16 11:41:57;;;;;;;5.72;2.63;;;;;;;26.82;32.44;102165.63;5052827;28;20040;-93
2022/06/16 11:44:47;;;;;;;6.07;2.85;;;;;;;27.03;32.32;102162.81;5052356;28;20017;-94
2022/06/16 11:47:28;;;;;;;4.95;2.60;;;;;;;26.87;32.87;102170.09;5052278;28;20111;-93
2022/06/16 11:50:21;;;;;;;6.82;2.50;;;;;;;26.98;32.04;102165.81;5052589;28;20151;-94
2022/06/16 11:53:01;;;;;;;5.70;3.08;;;;;;;27.25;32.89;102174.56;5053824;28;20548;-94
2022/06/16 11:55:39;;;;;;;6.47;3.58;;;;;;;27.04;32.55;102180.94;5056815;28;20037;-94
2022/06/16 11:58:20;;;;;;;6.27;2.87;;;;;;;27.02;31.48;102169.47;5056081;28;20036;-93
2022/06/16 12:01:22;;;;;;;5.30;2.80;;;;;;;26.99;32.84;102161.09;5054417;28;20286;-94
2022/06/16 12:04:01;;;;;;;5.68;2.40;;;;;;;27.08;31.40;102172.84;5035549;28;20408;-94
2022/06/16 12:06:39;;;;;;;6.97;3.05;;;;;;;26.97;31.92;102180.69;5039261;28;20090;-94